sensor_id;sensor_type;location;lat;lon;timestamp;temperature;humidity
70867;HTU21D;58487;53.474;49.470;2024-01-15T00:00:25;-16.56;58.68
70867;HTU21D;58487;53.474;49.470;2024-01-15T00:02:51;-16.49;58.58
70867;HTU21D;58487;53.474;49.470;2024-01-15T00:05:18;-16.52;58.22
70867;HTU21D;58487;53.474;49.470;2024-01-15T00:07:44;-16.76;59.34
70867;HTU21D;58487;53.474;49.470;2024-01-15T00:10:10;-16.86;58.85
70867;HTU21D;58487;53.474;49.470;2024-01-15T00:12:36;-16.81;58.41
70867;HTU21D;58487;53.474;49.470;2024-01-15T00:15:02;-16.78;58.60
70867;HTU21D;58487;53.474;49.470;2024-01-15T00:17:28;-16.73;58.28
70867;HTU21D;58487;53.474;49.470;2024-01-15T00:19:54;-16.74;58.20
70867;HTU21D;58487;53.474;49.470;2024-01-15T00:22:21;-16.73;58.10
70867;HTU21D;58487;53.474;49.470;2024-01-15T00:24:47;-16.76;57.51
70867;HTU21D;58487;53.474;49.470;2024-01-15T00:27:13;-16.71;57.49
70867;HTU21D;58487;53.474;49.470;2024-01-15T00:29:39;-16.73;57.71
70867;HTU21D;58487;53.474;49.470;2024-01-15T00:32:05;-16.70;57.53
70867;HTU21D;58487;53.474;49.470;2024-01-15T00:34:31;-16.64;57.51
70867;HTU21D;58487;53.474;49.470;2024-01-15T00:36:57;-16.61;57.06
70867;HTU21D;58487;53.474;49.470;2024-01-15T00:39:24;-16.63;56.39
70867;HTU21D;58487;53.474;49.470;2024-01-15T00:41:50;-16.63;56.27
70867;HTU21D;58487;53.474;49.470;2024-01-15T00:44:34;-16.64;57.05
70867;HTU21D;58487;53.474;49.470;2024-01-15T00:47:38;-16.73;57.11
70867;HTU21D;58487;53.474;49.470;2024-01-15T00:53:08;-16.78;56.84
70867;HTU21D;58487;53.474;49.470;2024-01-15T00:55:34;-16.67;56.16
70867;HTU21D;58487;53.474;49.470;2024-01-15T00:58:19;-16.71;56.58
70867;HTU21D;58487;53.474;49.470;2024-01-15T01:00:45;-16.76;56.01
70867;HTU21D;58487;53.474;49.470;2024-01-15T01:03:30;-16.74;56.31
70867;HTU21D;58487;53.474;49.470;2024-01-15T01:05:56;-16.83;56.79
70867;HTU21D;58487;53.474;49.470;2024-01-15T01:08:23;-16.87;56.66
70867;HTU21D;58487;53.474;49.470;2024-01-15T01:10:49;-16.88;57.00
70867;HTU21D;58487;53.474;49.470;2024-01-15T01:13:15;-16.97;57.10
70867;HTU21D;58487;53.474;49.470;2024-01-15T01:15:41;-17.04;57.40
70867;HTU21D;58487;53.474;49.470;2024-01-15T01:18:45;-17.09;57.56
70867;HTU21D;58487;53.474;49.470;2024-01-15T01:21:11;-17.08;57.54
70867;HTU21D;58487;53.474;49.470;2024-01-15T01:23:37;-17.06;57.84
70867;HTU21D;58487;53.474;49.470;2024-01-15T01:26:22;-17.06;57.64
70867;HTU21D;58487;53.474;49.470;2024-01-15T01:28:49;-17.10;57.80
70867;HTU21D;58487;53.474;49.470;2024-01-15T01:31:15;-17.11;57.71
70867;HTU21D;58487;53.474;49.470;2024-01-15T01:33:42;-17.12;57.73
70867;HTU21D;58487;53.474;49.470;2024-01-15T01:36:09;-17.13;58.23
70867;HTU21D;58487;53.474;49.470;2024-01-15T01:38:36;-17.15;58.11
70867;HTU21D;58487;53.474;49.470;2024-01-15T01:41:02;-17.14;57.98
70867;HTU21D;58487;53.474;49.470;2024-01-15T01:43:29;-17.18;58.20
70867;HTU21D;58487;53.474;49.470;2024-01-15T01:45:57;-17.18;58.46
70867;HTU21D;58487;53.474;49.470;2024-01-15T01:48:24;-17.23;58.68
70867;HTU21D;58487;53.474;49.470;2024-01-15T01:51:09;-17.24;58.93
70867;HTU21D;58487;53.474;49.470;2024-01-15T01:53:36;-17.30;59.59
70867;HTU21D;58487;53.474;49.470;2024-01-15T01:56:04;-17.37;59.65
70867;HTU21D;58487;53.474;49.470;2024-01-15T01:58:32;-17.37;60.34
70867;HTU21D;58487;53.474;49.470;2024-01-15T02:00:59;-17.43;61.09
70867;HTU21D;58487;53.474;49.470;2024-01-15T02:03:27;-17.44;60.77
70867;HTU21D;58487;53.474;49.470;2024-01-15T02:06:12;-17.46;60.85
70867;HTU21D;58487;53.474;49.470;2024-01-15T02:08:38;-17.42;61.10
70867;HTU21D;58487;53.474;49.470;2024-01-15T02:11:04;-17.44;61.28
70867;HTU21D;58487;53.474;49.470;2024-01-15T02:13:30;-17.41;62.48
70867;HTU21D;58487;53.474;49.470;2024-01-15T02:15:56;-17.36;62.06
70867;HTU21D;58487;53.474;49.470;2024-01-15T02:18:22;-17.39;62.27
70867;HTU21D;58487;53.474;49.470;2024-01-15T02:20:48;-17.38;62.37
70867;HTU21D;58487;53.474;49.470;2024-01-15T02:23:15;-17.37;62.69
70867;HTU21D;58487;53.474;49.470;2024-01-15T02:25:43;-17.43;63.44
70867;HTU21D;58487;53.474;49.470;2024-01-15T02:28:16;-17.39;64.34
70867;HTU21D;58487;53.474;49.470;2024-01-15T02:30:43;-17.31;64.02
70867;HTU21D;58487;53.474;49.470;2024-01-15T02:33:11;-17.33;64.05
70867;HTU21D;58487;53.474;49.470;2024-01-15T02:35:37;-17.41;64.32
70867;HTU21D;58487;53.474;49.470;2024-01-15T02:38:05;-17.46;65.05
70867;HTU21D;58487;53.474;49.470;2024-01-15T02:40:31;-17.57;65.54
70867;HTU21D;58487;53.474;49.470;2024-01-15T02:42:58;-17.58;66.02
70867;HTU21D;58487;53.474;49.470;2024-01-15T02:45:43;-17.57;66.51
70867;HTU21D;58487;53.474;49.470;2024-01-15T02:48:09;-17.58;66.68
70867;HTU21D;58487;53.474;49.470;2024-01-15T02:50:35;-17.60;66.75
70867;HTU21D;58487;53.474;49.470;2024-01-15T02:53:01;-17.56;66.90
70867;HTU21D;58487;53.474;49.470;2024-01-15T02:55:27;-17.45;67.00
70867;HTU21D;58487;53.474;49.470;2024-01-15T02:57:55;-17.38;66.69
70867;HTU21D;58487;53.474;49.470;2024-01-15T03:00:21;-17.36;66.64
70867;HTU21D;58487;53.474;49.470;2024-01-15T03:02:49;-17.31;66.83
70867;HTU21D;58487;53.474;49.470;2024-01-15T03:05:16;-17.36;66.98
70867;HTU21D;58487;53.474;49.470;2024-01-15T03:10:27;-17.21;67.36
70867;HTU21D;58487;53.474;49.470;2024-01-15T03:12:53;-17.16;67.88
70867;HTU21D;58487;53.474;49.470;2024-01-15T03:15:19;-17.02;68.37
70867;HTU21D;58487;53.474;49.470;2024-01-15T03:20:30;-16.85;67.65
70867;HTU21D;58487;53.474;49.470;2024-01-15T03:22:56;-16.79;67.56
70867;HTU21D;58487;53.474;49.470;2024-01-15T03:25:22;-16.70;68.71
70867;HTU21D;58487;53.474;49.470;2024-01-15T03:27:48;-16.67;68.07
70867;HTU21D;58487;53.474;49.470;2024-01-15T03:30:14;-16.62;68.67
70867;HTU21D;58487;53.474;49.470;2024-01-15T03:32:41;-16.56;67.88
70867;HTU21D;58487;53.474;49.470;2024-01-15T03:35:07;-16.53;68.27
70867;HTU21D;58487;53.474;49.470;2024-01-15T03:37:33;-16.55;68.42
70867;HTU21D;58487;53.474;49.470;2024-01-15T03:39:59;-16.47;69.21
70867;HTU21D;58487;53.474;49.470;2024-01-15T03:42:25;-16.47;68.52
70867;HTU21D;58487;53.474;49.470;2024-01-15T03:44:51;-16.40;70.03
70867;HTU21D;58487;53.474;49.470;2024-01-15T03:47:17;-16.28;69.55
70867;HTU21D;58487;53.474;49.470;2024-01-15T03:49:43;-16.14;70.22
70867;HTU21D;58487;53.474;49.470;2024-01-15T03:57:39;-15.78;70.62
70867;HTU21D;58487;53.474;49.470;2024-01-15T04:00:05;-15.78;70.68
70867;HTU21D;58487;53.474;49.470;2024-01-15T04:02:31;-15.75;70.88
70867;HTU21D;58487;53.474;49.470;2024-01-15T04:05:16;-15.73;70.38
70867;HTU21D;58487;53.474;49.470;2024-01-15T04:07:42;-15.70;70.17
70867;HTU21D;58487;53.474;49.470;2024-01-15T04:10:08;-15.67;70.16
70867;HTU21D;58487;53.474;49.470;2024-01-15T04:12:34;-15.61;69.83
70867;HTU21D;58487;53.474;49.470;2024-01-15T04:15:02;-15.50;69.29
70867;HTU21D;58487;53.474;49.470;2024-01-15T04:17:47;-15.46;68.37
70867;HTU21D;58487;53.474;49.470;2024-01-15T04:20:13;-15.39;68.06
70867;HTU21D;58487;53.474;49.470;2024-01-15T04:22:39;-15.28;67.30
70867;HTU21D;58487;53.474;49.470;2024-01-15T04:25:05;-15.16;66.50
70867;HTU21D;58487;53.474;49.470;2024-01-15T04:27:31;-15.07;66.52
70867;HTU21D;58487;53.474;49.470;2024-01-15T04:29:58;-14.93;66.25
70867;HTU21D;58487;53.474;49.470;2024-01-15T04:32:24;-14.82;65.43
70867;HTU21D;58487;53.474;49.470;2024-01-15T04:35:08;-14.69;65.18
70867;HTU21D;58487;53.474;49.470;2024-01-15T04:37:35;-14.58;64.56
70867;HTU21D;58487;53.474;49.470;2024-01-15T04:40:02;-14.51;64.78
70867;HTU21D;58487;53.474;49.470;2024-01-15T04:45:14;-14.25;64.43
70867;HTU21D;58487;53.474;49.470;2024-01-15T04:47:40;-14.19;64.71
70867;HTU21D;58487;53.474;49.470;2024-01-15T04:50:27;-14.13;64.57
70867;HTU21D;58487;53.474;49.470;2024-01-15T04:52:53;-14.20;64.80
70867;HTU21D;58487;53.474;49.470;2024-01-15T04:55:19;-14.20;66.07
70867;HTU21D;58487;53.474;49.470;2024-01-15T04:57:46;-14.16;64.85
70867;HTU21D;58487;53.474;49.470;2024-01-15T05:00:30;-14.05;64.34
70867;HTU21D;58487;53.474;49.470;2024-01-15T05:02:57;-13.99;63.53
70867;HTU21D;58487;53.474;49.470;2024-01-15T05:05:23;-13.88;62.66
70867;HTU21D;58487;53.474;49.470;2024-01-15T05:08:07;-13.80;62.37
70867;HTU21D;58487;53.474;49.470;2024-01-15T05:10:52;-13.77;61.70
70867;HTU21D;58487;53.474;49.470;2024-01-15T05:13:18;-13.76;62.18
70867;HTU21D;58487;53.474;49.470;2024-01-15T05:15:45;-13.68;61.34
70867;HTU21D;58487;53.474;49.470;2024-01-15T05:18:29;-13.60;60.60
70867;HTU21D;58487;53.474;49.470;2024-01-15T05:20:55;-13.58;60.67
70867;HTU21D;58487;53.474;49.470;2024-01-15T05:23:22;-13.53;60.71
70867;HTU21D;58487;53.474;49.470;2024-01-15T05:25:48;-13.53;58.83
70867;HTU21D;58487;53.474;49.470;2024-01-15T05:28:14;-13.46;59.68
70867;HTU21D;58487;53.474;49.470;2024-01-15T05:30:41;-13.42;60.29
70867;HTU21D;58487;53.474;49.470;2024-01-15T05:33:07;-13.37;60.61
70867;HTU21D;58487;53.474;49.470;2024-01-15T05:35:34;-13.29;61.02
70867;HTU21D;58487;53.474;49.470;2024-01-15T05:38:00;-13.26;61.05
70867;HTU21D;58487;53.474;49.470;2024-01-15T05:40:26;-13.27;62.57
70867;HTU21D;58487;53.474;49.470;2024-01-15T05:42:53;-13.28;64.33
70867;HTU21D;58487;53.474;49.470;2024-01-15T05:45:19;-13.37;65.55
70867;HTU21D;58487;53.474;49.470;2024-01-15T05:47:45;-13.37;67.05
70867;HTU21D;58487;53.474;49.470;2024-01-15T05:50:11;-13.26;66.68
70867;HTU21D;58487;53.474;49.470;2024-01-15T05:52:38;-13.40;68.62
70867;HTU21D;58487;53.474;49.470;2024-01-15T05:55:04;-13.47;69.46
70867;HTU21D;58487;53.474;49.470;2024-01-15T05:57:31;-13.47;69.98
70867;HTU21D;58487;53.474;49.470;2024-01-15T05:59:57;-13.41;70.29
70867;HTU21D;58487;53.474;49.470;2024-01-15T06:02:23;-13.31;70.73
70867;HTU21D;58487;53.474;49.470;2024-01-15T06:04:49;-13.58;71.16
70867;HTU21D;58487;53.474;49.470;2024-01-15T06:07:16;-13.49;71.71
70867;HTU21D;58487;53.474;49.470;2024-01-15T06:09:42;-13.53;71.70
70867;HTU21D;58487;53.474;49.470;2024-01-15T06:12:08;-13.47;72.47
70867;HTU21D;58487;53.474;49.470;2024-01-15T06:14:35;-13.51;72.25
70867;HTU21D;58487;53.474;49.470;2024-01-15T06:17:01;-13.53;72.47
70867;HTU21D;58487;53.474;49.470;2024-01-15T06:19:27;-13.57;72.87
70867;HTU21D;58487;53.474;49.470;2024-01-15T06:22:11;-13.57;72.54
70867;HTU21D;58487;53.474;49.470;2024-01-15T06:24:56;-13.71;73.57
70867;HTU21D;58487;53.474;49.470;2024-01-15T06:27:22;-13.70;73.52
70867;HTU21D;58487;53.474;49.470;2024-01-15T06:29:48;-13.56;73.13
70867;HTU21D;58487;53.474;49.470;2024-01-15T06:32:33;-13.62;72.87
70867;HTU21D;58487;53.474;49.470;2024-01-15T06:35:00;-13.60;73.06
70867;HTU21D;58487;53.474;49.470;2024-01-15T06:37:26;-13.57;73.08
70867;HTU21D;58487;53.474;49.470;2024-01-15T06:39:52;-13.59;74.51
70867;HTU21D;58487;53.474;49.470;2024-01-15T06:42:18;-13.48;74.88
70867;HTU21D;58487;53.474;49.470;2024-01-15T06:44:44;-13.46;75.09
70867;HTU21D;58487;53.474;49.470;2024-01-15T06:47:10;-13.43;75.02
70867;HTU21D;58487;53.474;49.470;2024-01-15T06:49:36;-13.43;75.28
70867;HTU21D;58487;53.474;49.470;2024-01-15T06:52:02;-13.43;75.67
70867;HTU21D;58487;53.474;49.470;2024-01-15T06:57:13;-13.40;76.27
70867;HTU21D;58487;53.474;49.470;2024-01-15T06:59:39;-13.48;76.21
70867;HTU21D;58487;53.474;49.470;2024-01-15T07:02:05;-13.37;77.17
70867;HTU21D;58487;53.474;49.470;2024-01-15T07:04:31;-13.32;76.56
70867;HTU21D;58487;53.474;49.470;2024-01-15T07:06:57;-13.32;77.33
70867;HTU21D;58487;53.474;49.470;2024-01-15T07:09:23;-13.19;77.18
70867;HTU21D;58487;53.474;49.470;2024-01-15T07:11:49;-13.21;77.17
70867;HTU21D;58487;53.474;49.470;2024-01-15T07:14:34;-13.19;77.56
70867;HTU21D;58487;53.474;49.470;2024-01-15T07:17:00;-13.19;78.67
70867;HTU21D;58487;53.474;49.470;2024-01-15T07:19:26;-13.25;77.93
70867;HTU21D;58487;53.474;49.470;2024-01-15T07:22:10;-13.17;79.38
70867;HTU21D;58487;53.474;49.470;2024-01-15T07:24:36;-13.10;79.23
70867;HTU21D;58487;53.474;49.470;2024-01-15T07:27:02;-13.00;79.24
70867;HTU21D;58487;53.474;49.470;2024-01-15T07:29:30;-12.96;78.73
70867;HTU21D;58487;53.474;49.470;2024-01-15T07:31:58;-12.89;78.87
70867;HTU21D;58487;53.474;49.470;2024-01-15T07:34:24;-13.01;78.98
70867;HTU21D;58487;53.474;49.470;2024-01-15T07:36:51;-12.92;79.68
70867;HTU21D;58487;53.474;49.470;2024-01-15T07:39:17;-12.86;80.04
70867;HTU21D;58487;53.474;49.470;2024-01-15T07:41:43;-12.83;78.69
70867;HTU21D;58487;53.474;49.470;2024-01-15T07:44:10;-12.79;78.25
70867;HTU21D;58487;53.474;49.470;2024-01-15T07:46:54;-12.69;77.35
70867;HTU21D;58487;53.474;49.470;2024-01-15T07:49:21;-12.58;78.23
70867;HTU21D;58487;53.474;49.470;2024-01-15T07:52:06;-12.48;77.61
70867;HTU21D;58487;53.474;49.470;2024-01-15T07:54:32;-12.51;77.34
70867;HTU21D;58487;53.474;49.470;2024-01-15T07:57:02;-12.42;76.73
70867;HTU21D;58487;53.474;49.470;2024-01-15T07:59:47;-12.38;76.01
70867;HTU21D;58487;53.474;49.470;2024-01-15T08:02:32;-12.33;75.86
70867;HTU21D;58487;53.474;49.470;2024-01-15T08:04:58;-12.29;76.02
70867;HTU21D;58487;53.474;49.470;2024-01-15T08:07:43;-12.23;75.67
70867;HTU21D;58487;53.474;49.470;2024-01-15T08:10:09;-12.20;75.52
70867;HTU21D;58487;53.474;49.470;2024-01-15T08:15:20;-12.07;76.31
70867;HTU21D;58487;53.474;49.470;2024-01-15T08:17:46;-12.01;76.62
70867;HTU21D;58487;53.474;49.470;2024-01-15T08:20:13;-12.00;76.98
70867;HTU21D;58487;53.474;49.470;2024-01-15T08:22:39;-11.97;77.41
70867;HTU21D;58487;53.474;49.470;2024-01-15T08:25:24;-11.94;78.50
70867;HTU21D;58487;53.474;49.470;2024-01-15T08:27:52;-11.89;78.98
70867;HTU21D;58487;53.474;49.470;2024-01-15T08:30:18;-11.85;79.39
70867;HTU21D;58487;53.474;49.470;2024-01-15T08:33:03;-11.79;79.91
70867;HTU21D;58487;53.474;49.470;2024-01-15T08:35:30;-11.74;79.48
70867;HTU21D;58487;53.474;49.470;2024-01-15T08:37:56;-11.60;79.21
70867;HTU21D;58487;53.474;49.470;2024-01-15T08:40:24;-11.59;77.39
70867;HTU21D;58487;53.474;49.470;2024-01-15T08:42:50;-11.52;76.81
70867;HTU21D;58487;53.474;49.470;2024-01-15T08:45:16;-11.50;77.34
70867;HTU21D;58487;53.474;49.470;2024-01-15T08:50:30;-11.58;77.63
70867;HTU21D;58487;53.474;49.470;2024-01-15T08:52:58;-11.64;78.33
70867;HTU21D;58487;53.474;49.470;2024-01-15T08:55:24;-11.56;78.67
70867;HTU21D;58487;53.474;49.470;2024-01-15T08:58:27;-11.58;78.75
70867;HTU21D;58487;53.474;49.470;2024-01-15T09:01:12;-11.56;79.14
70867;HTU21D;58487;53.474;49.470;2024-01-15T09:06:22;-11.41;78.54
70867;HTU21D;58487;53.474;49.470;2024-01-15T09:08:48;-11.37;79.72
70867;HTU21D;58487;53.474;49.470;2024-01-15T09:11:15;-11.45;79.12
70867;HTU21D;58487;53.474;49.470;2024-01-15T09:13:41;-11.46;80.63
70867;HTU21D;58487;53.474;49.470;2024-01-15T09:16:07;-11.42;79.51
70867;HTU21D;58487;53.474;49.470;2024-01-15T09:18:33;-11.32;79.26
70867;HTU21D;58487;53.474;49.470;2024-01-15T09:20:59;-11.31;79.92
70867;HTU21D;58487;53.474;49.470;2024-01-15T09:23:25;-11.32;79.01
70867;HTU21D;58487;53.474;49.470;2024-01-15T09:25:51;-11.34;77.97
70867;HTU21D;58487;53.474;49.470;2024-01-15T09:28:18;-11.31;78.24
70867;HTU21D;58487;53.474;49.470;2024-01-15T09:30:44;-11.22;78.75
70867;HTU21D;58487;53.474;49.470;2024-01-15T09:33:11;-11.15;78.91
70867;HTU21D;58487;53.474;49.470;2024-01-15T09:35:37;-11.29;79.44
70867;HTU21D;58487;53.474;49.470;2024-01-15T09:38:22;-11.22;79.19
70867;HTU21D;58487;53.474;49.470;2024-01-15T09:40:50;-11.05;79.66
70867;HTU21D;58487;53.474;49.470;2024-01-15T09:43:17;-11.03;78.71
70867;HTU21D;58487;53.474;49.470;2024-01-15T09:45:44;-10.92;78.76
70867;HTU21D;58487;53.474;49.470;2024-01-15T09:48:10;-10.92;78.55
70867;HTU21D;58487;53.474;49.470;2024-01-15T09:50:37;-10.92;79.44
70867;HTU21D;58487;53.474;49.470;2024-01-15T09:53:05;-10.81;79.57
70867;HTU21D;58487;53.474;49.470;2024-01-15T09:55:50;-10.76;79.69
70867;HTU21D;58487;53.474;49.470;2024-01-15T09:58:16;-10.75;79.11
70867;HTU21D;58487;53.474;49.470;2024-01-15T10:00:44;-10.71;79.53
70867;HTU21D;58487;53.474;49.470;2024-01-15T10:03:29;-10.76;78.71
70867;HTU21D;58487;53.474;49.470;2024-01-15T10:06:17;-10.74;79.17
70867;HTU21D;58487;53.474;49.470;2024-01-15T10:11:34;-10.62;78.46
70867;HTU21D;58487;53.474;49.470;2024-01-15T10:14:01;-10.73;77.62
70867;HTU21D;58487;53.474;49.470;2024-01-15T10:16:27;-10.78;77.56
70867;HTU21D;58487;53.474;49.470;2024-01-15T10:18:53;-10.80;78.76
70867;HTU21D;58487;53.474;49.470;2024-01-15T10:21:20;-10.74;78.47
70867;HTU21D;58487;53.474;49.470;2024-01-15T10:23:46;-10.70;78.09
70867;HTU21D;58487;53.474;49.470;2024-01-15T10:26:13;-10.64;78.63
70867;HTU21D;58487;53.474;49.470;2024-01-15T10:28:40;-10.64;78.45
70867;HTU21D;58487;53.474;49.470;2024-01-15T10:31:07;-10.61;78.40
70867;HTU21D;58487;53.474;49.470;2024-01-15T10:33:33;-10.70;78.59
70867;HTU21D;58487;53.474;49.470;2024-01-15T10:36:00;-10.67;79.33
70867;HTU21D;58487;53.474;49.470;2024-01-15T10:38:27;-10.66;79.83
70867;HTU21D;58487;53.474;49.470;2024-01-15T10:40:54;-10.76;79.50
70867;HTU21D;58487;53.474;49.470;2024-01-15T10:46:07;-10.70;79.86
70867;HTU21D;58487;53.474;49.470;2024-01-15T10:48:34;-10.85;80.07
70867;HTU21D;58487;53.474;49.470;2024-01-15T10:51:02;-10.77;80.03
70867;HTU21D;58487;53.474;49.470;2024-01-15T10:53:38;-10.63;79.75
70867;HTU21D;58487;53.474;49.470;2024-01-15T10:56:06;-10.74;80.02
70867;HTU21D;58487;53.474;49.470;2024-01-15T10:58:34;-10.77;80.56
70867;HTU21D;58487;53.474;49.470;2024-01-15T11:01:02;-10.80;80.38
70867;HTU21D;58487;53.474;49.470;2024-01-15T11:03:29;-10.78;80.81
70867;HTU21D;58487;53.474;49.470;2024-01-15T11:09:02;-10.78;81.62
70867;HTU21D;58487;53.474;49.470;2024-01-15T11:11:29;-10.72;81.68
70867;HTU21D;58487;53.474;49.470;2024-01-15T11:13:56;-10.73;81.85
70867;HTU21D;58487;53.474;49.470;2024-01-15T11:16:22;-10.89;82.88
70867;HTU21D;58487;53.474;49.470;2024-01-15T11:19:07;-10.86;83.50
70867;HTU21D;58487;53.474;49.470;2024-01-15T11:21:42;-10.84;82.62
70867;HTU21D;58487;53.474;49.470;2024-01-15T11:24:08;-10.86;82.69
70867;HTU21D;58487;53.474;49.470;2024-01-15T11:26:43;-10.85;82.20
70867;HTU21D;58487;53.474;49.470;2024-01-15T11:37:19;-10.86;82.93
70867;HTU21D;58487;53.474;49.470;2024-01-15T11:39:45;-10.89;82.84
70867;HTU21D;58487;53.474;49.470;2024-01-15T11:42:15;-10.97;82.91
70867;HTU21D;58487;53.474;49.470;2024-01-15T11:44:42;-10.95;83.27
70867;HTU21D;58487;53.474;49.470;2024-01-15T11:47:12;-10.94;83.44
70867;HTU21D;58487;53.474;49.470;2024-01-15T11:50:00;-10.97;83.68
70867;HTU21D;58487;53.474;49.470;2024-01-15T11:52:36;-10.93;83.71
70867;HTU21D;58487;53.474;49.470;2024-01-15T12:00:07;-10.87;81.86
70867;HTU21D;58487;53.474;49.470;2024-01-15T12:02:34;-10.85;81.67
70867;HTU21D;58487;53.474;49.470;2024-01-15T12:05:00;-10.78;81.38
70867;HTU21D;58487;53.474;49.470;2024-01-15T12:10:30;-10.79;80.52
70867;HTU21D;58487;53.474;49.470;2024-01-15T12:15:47;-10.72;80.44
70867;HTU21D;58487;53.474;49.470;2024-01-15T12:21:19;-10.76;80.16
70867;HTU21D;58487;53.474;49.470;2024-01-15T12:23:49;-10.72;80.39
70867;HTU21D;58487;53.474;49.470;2024-01-15T12:26:15;-10.68;80.34
70867;HTU21D;58487;53.474;49.470;2024-01-15T12:28:41;-10.66;79.59
70867;HTU21D;58487;53.474;49.470;2024-01-15T12:31:08;-10.61;78.82
70867;HTU21D;58487;53.474;49.470;2024-01-15T12:33:53;-10.62;78.78
70867;HTU21D;58487;53.474;49.470;2024-01-15T12:36:22;-10.56;78.70
70867;HTU21D;58487;53.474;49.470;2024-01-15T12:38:48;-10.50;78.71
70867;HTU21D;58487;53.474;49.470;2024-01-15T12:41:15;-10.48;78.40
70867;HTU21D;58487;53.474;49.470;2024-01-15T12:43:59;-10.47;78.03
70867;HTU21D;58487;53.474;49.470;2024-01-15T12:49:13;-10.45;78.54
70867;HTU21D;58487;53.474;49.470;2024-01-15T12:51:39;-10.44;79.82
70867;HTU21D;58487;53.474;49.470;2024-01-15T12:54:05;-10.51;80.11
70867;HTU21D;58487;53.474;49.470;2024-01-15T12:56:31;-10.52;80.49
70867;HTU21D;58487;53.474;49.470;2024-01-15T12:58:57;-10.44;80.85
70867;HTU21D;58487;53.474;49.470;2024-01-15T13:01:23;-10.36;80.41
70867;HTU21D;58487;53.474;49.470;2024-01-15T13:04:08;-10.38;80.46
70867;HTU21D;58487;53.474;49.470;2024-01-15T13:06:37;-10.34;80.75
70867;HTU21D;58487;53.474;49.470;2024-01-15T13:09:04;-10.31;80.61
70867;HTU21D;58487;53.474;49.470;2024-01-15T13:11:33;-10.32;81.52
70867;HTU21D;58487;53.474;49.470;2024-01-15T13:13:59;-10.29;81.20
70867;HTU21D;58487;53.474;49.470;2024-01-15T13:16:25;-10.27;80.48
70867;HTU21D;58487;53.474;49.470;2024-01-15T13:21:43;-10.22;80.48
70867;HTU21D;58487;53.474;49.470;2024-01-15T13:24:09;-10.31;80.31
70867;HTU21D;58487;53.474;49.470;2024-01-15T13:26:35;-10.31;80.09
70867;HTU21D;58487;53.474;49.470;2024-01-15T13:29:04;-10.26;80.50
70867;HTU21D;58487;53.474;49.470;2024-01-15T13:31:31;-10.23;80.72
70867;HTU21D;58487;53.474;49.470;2024-01-15T13:33:57;-10.28;80.76
70867;HTU21D;58487;53.474;49.470;2024-01-15T13:36:24;-10.25;81.00
70867;HTU21D;58487;53.474;49.470;2024-01-15T13:41:36;-10.22;80.69
70867;HTU21D;58487;53.474;49.470;2024-01-15T13:44:03;-10.20;80.90
70867;HTU21D;58487;53.474;49.470;2024-01-15T13:46:29;-10.16;81.15
70867;HTU21D;58487;53.474;49.470;2024-01-15T13:48:55;-10.17;80.67
70867;HTU21D;58487;53.474;49.470;2024-01-15T13:51:22;-10.17;80.91
70867;HTU21D;58487;53.474;49.470;2024-01-15T13:53:51;-10.22;81.78
70867;HTU21D;58487;53.474;49.470;2024-01-15T13:56:19;-10.22;81.76
70867;HTU21D;58487;53.474;49.470;2024-01-15T13:58:45;-10.17;81.46
70867;HTU21D;58487;53.474;49.470;2024-01-15T14:01:11;-10.16;81.32
70867;HTU21D;58487;53.474;49.470;2024-01-15T14:03:38;-10.13;81.56
70867;HTU21D;58487;53.474;49.470;2024-01-15T14:06:04;-10.15;82.00
70867;HTU21D;58487;53.474;49.470;2024-01-15T14:08:35;-10.12;82.82
70867;HTU21D;58487;53.474;49.470;2024-01-15T14:11:04;-10.12;82.50
70867;HTU21D;58487;53.474;49.470;2024-01-15T14:13:33;-10.12;82.70
70867;HTU21D;58487;53.474;49.470;2024-01-15T14:15:59;-10.12;82.68
70867;HTU21D;58487;53.474;49.470;2024-01-15T14:18:45;-10.16;82.75
70867;HTU21D;58487;53.474;49.470;2024-01-15T14:21:11;-10.13;83.07
70867;HTU21D;58487;53.474;49.470;2024-01-15T14:23:37;-10.10;83.16
70867;HTU21D;58487;53.474;49.470;2024-01-15T14:26:03;-10.12;82.62
70867;HTU21D;58487;53.474;49.470;2024-01-15T14:28:30;-10.11;83.01
70867;HTU21D;58487;53.474;49.470;2024-01-15T14:30:56;-10.10;83.64
70867;HTU21D;58487;53.474;49.470;2024-01-15T14:33:25;-10.10;83.98
70867;HTU21D;58487;53.474;49.470;2024-01-15T14:36:10;-10.04;84.30
70867;HTU21D;58487;53.474;49.470;2024-01-15T14:38:36;-10.03;84.47
70867;HTU21D;58487;53.474;49.470;2024-01-15T14:41:02;-10.02;84.57
70867;HTU21D;58487;53.474;49.470;2024-01-15T14:43:30;-10.00;84.49
70867;HTU21D;58487;53.474;49.470;2024-01-15T14:46:15;-10.01;84.64
70867;HTU21D;58487;53.474;49.470;2024-01-15T14:48:41;-10.01;84.99
70867;HTU21D;58487;53.474;49.470;2024-01-15T14:51:07;-9.97;85.32
70867;HTU21D;58487;53.474;49.470;2024-01-15T14:53:35;-9.94;85.05
70867;HTU21D;58487;53.474;49.470;2024-01-15T14:56:01;-9.93;85.48
70867;HTU21D;58487;53.474;49.470;2024-01-15T14:58:28;-9.92;85.77
70867;HTU21D;58487;53.474;49.470;2024-01-15T15:00:55;-9.87;85.60
70867;HTU21D;58487;53.474;49.470;2024-01-15T15:03:21;-9.88;86.19
70867;HTU21D;58487;53.474;49.470;2024-01-15T15:05:48;-9.84;86.34
70867;HTU21D;58487;53.474;49.470;2024-01-15T15:08:14;-9.79;86.28
70867;HTU21D;58487;53.474;49.470;2024-01-15T15:10:41;-9.75;85.88
70867;HTU21D;58487;53.474;49.470;2024-01-15T15:13:07;-9.68;85.13
70867;HTU21D;58487;53.474;49.470;2024-01-15T15:15:33;-9.67;84.45
70867;HTU21D;58487;53.474;49.470;2024-01-15T15:18:01;-9.62;84.88
70867;HTU21D;58487;53.474;49.470;2024-01-15T15:20:45;-9.59;85.45
70867;HTU21D;58487;53.474;49.470;2024-01-15T15:25:56;-9.58;84.85
70867;HTU21D;58487;53.474;49.470;2024-01-15T15:28:23;-9.56;84.47
70867;HTU21D;58487;53.474;49.470;2024-01-15T15:30:49;-9.56;84.89
70867;HTU21D;58487;53.474;49.470;2024-01-15T15:33:15;-9.56;84.97
70867;HTU21D;58487;53.474;49.470;2024-01-15T15:35:41;-9.57;85.32
70867;HTU21D;58487;53.474;49.470;2024-01-15T15:38:27;-9.53;85.54
70867;HTU21D;58487;53.474;49.470;2024-01-15T15:40:53;-9.51;85.53
70867;HTU21D;58487;53.474;49.470;2024-01-15T15:46:03;-9.46;85.03
70867;HTU21D;58487;53.474;49.470;2024-01-15T15:48:30;-9.44;85.84
70867;HTU21D;58487;53.474;49.470;2024-01-15T15:50:56;-9.45;85.78
70867;HTU21D;58487;53.474;49.470;2024-01-15T15:53:25;-9.46;86.36
70867;HTU21D;58487;53.474;49.470;2024-01-15T15:55:51;-9.53;86.51
70867;HTU21D;58487;53.474;49.470;2024-01-15T15:58:17;-9.55;86.53
70867;HTU21D;58487;53.474;49.470;2024-01-15T16:00:44;-9.55;86.26
70867;HTU21D;58487;53.474;49.470;2024-01-15T16:05:54;-9.61;84.40
70867;HTU21D;58487;53.474;49.470;2024-01-15T16:08:20;-9.64;84.30
70867;HTU21D;58487;53.474;49.470;2024-01-15T16:10:46;-9.71;84.58
70867;HTU21D;58487;53.474;49.470;2024-01-15T16:13:14;-9.71;84.90
70867;HTU21D;58487;53.474;49.470;2024-01-15T16:15:40;-9.72;85.85